WAT2012 KJFK-EGLL
Flight info
| Callsign | WAT2012 |
|---|---|
| Flight time | 6h 6m |
| Altitude | 35000 |
| Route | MERIT DCT HFD DCT PUT DCT WITCH DCT ALLEX N535B UMESI/M084F360 DCT 5130N05000W 5330N04000W 5430N03000W 5430N02000W DCT NEBIN DCT OLGON/N0483F370 DCT ENJEX DCT AVZAC DCT INFEC DCT JETZI DCT AMFUL DCT ORZEB/N0457F230 P2 SIRIC |
| Aircraft | B77W/H-SDE1E2E3FGHIJ2J3J4J5M1RWXY/LB1D1 |
Departure
| Time | 2026-05-08 14:32 |
|---|---|
| Airport | John F. Kennedy International Airport (KJFK) |
Arrival
| Time | 2026-05-08 20:39 |
|---|---|
| Airport | London Heathrow Airport (EGLL) |
| Time | Latitude | Longitude | Altitude | Speed | Heading |
|---|---|---|---|---|---|
| 2026-05-08 13:47 | 40.64097 | -73.78326 | 29 ft | 0 kts | 60° |
| 2026-05-08 14:14 | 40.64085 | -73.78352 | 31 ft | 4 kts | 56° |
| 2026-05-08 14:15 | 40.64072 | -73.78382 | 31 ft | 4 kts | 78° |
| 2026-05-08 14:15 | 40.64072 | -73.78415 | 31 ft | 4 kts | 115° |
| 2026-05-08 14:15 | 40.64086 | -73.78438 | 31 ft | 1 kts | 151° |
| 2026-05-08 14:15 | 40.64087 | -73.78439 | 31 ft | 0 kts | 151° |
| 2026-05-08 14:20 | 40.64079 | -73.78433 | 31 ft | 3 kts | 150° |
| 2026-05-08 14:20 | 40.64054 | -73.78413 | 29 ft | 6 kts | 149° |
| 2026-05-08 14:21 | 40.64012 | -73.78382 | 27 ft | 8 kts | 152° |
| 2026-05-08 14:21 | 40.63964 | -73.78348 | 30 ft | 8 kts | 152° |
| 2026-05-08 14:21 | 40.63914 | -73.78316 | 29 ft | 8 kts | 155° |
| 2026-05-08 14:21 | 40.63862 | -73.78293 | 28 ft | 8 kts | 166° |
| 2026-05-08 14:22 | 40.63808 | -73.78278 | 30 ft | 8 kts | 169° |
| 2026-05-08 14:22 | 40.63754 | -73.78269 | 28 ft | 8 kts | 175° |
| 2026-05-08 14:22 | 40.63699 | -73.78263 | 28 ft | 8 kts | 175° |
| 2026-05-08 14:22 | 40.63644 | -73.78257 | 28 ft | 8 kts | 175° |
| 2026-05-08 14:23 | 40.63589 | -73.78259 | 28 ft | 8 kts | 189° |
| 2026-05-08 14:23 | 40.63525 | -73.78256 | 31 ft | 12 kts | 153° |
| 2026-05-08 14:23 | 40.63470 | -73.78168 | 28 ft | 13 kts | 121° |
| 2026-05-08 14:23 | 40.63425 | -73.78068 | 30 ft | 13 kts | 121° |
| 2026-05-08 14:24 | 40.63382 | -73.77967 | 31 ft | 13 kts | 117° |
| 2026-05-08 14:24 | 40.63339 | -73.77868 | 26 ft | 10 kts | 121° |
| 2026-05-08 14:24 | 40.63330 | -73.77848 | 27 ft | 1 kts | 122° |
| 2026-05-08 14:24 | 40.63329 | -73.77846 | 27 ft | 0 kts | 122° |
| 2026-05-08 14:25 | 40.63328 | -73.77845 | 27 ft | 0 kts | 122° |
| 2026-05-08 14:28 | 40.63328 | -73.77844 | 27 ft | 0 kts | 122° |
| 2026-05-08 14:28 | 40.63327 | -73.77841 | 27 ft | 3 kts | 121° |
| 2026-05-08 14:28 | 40.63308 | -73.77797 | 28 ft | 6 kts | 118° |
| 2026-05-08 14:29 | 40.63281 | -73.77733 | 29 ft | 15 kts | 119° |
| 2026-05-08 14:29 | 40.63214 | -73.77585 | 27 ft | 19 kts | 122° |
| 2026-05-08 14:29 | 40.63143 | -73.77433 | 26 ft | 19 kts | 121° |
| 2026-05-08 14:29 | 40.63072 | -73.77281 | 30 ft | 19 kts | 121° |
| 2026-05-08 14:30 | 40.63003 | -73.77128 | 31 ft | 19 kts | 121° |
| 2026-05-08 14:30 | 40.62914 | -73.77103 | 28 ft | 8 kts | 213° |
| 2026-05-08 14:30 | 40.62910 | -73.77107 | 30 ft | 1 kts | 213° |
| 2026-05-08 14:30 | 40.62905 | -73.77111 | 28 ft | 2 kts | 213° |
| 2026-05-08 14:31 | 40.62852 | -73.77157 | 27 ft | 12 kts | 217° |
| 2026-05-08 14:31 | 40.62831 | -73.77249 | 27 ft | 6 kts | 297° |
| 2026-05-08 14:31 | 40.62831 | -73.77250 | 27 ft | 0 kts | 297° |
| 2026-05-08 14:32 | 40.62949 | -73.77522 | 29 ft | 75 kts | 300° |
| 2026-05-08 14:32 | 40.63353 | -73.78408 | 30 ft | 149 kts | 300° |
| 2026-05-08 14:32 | 40.63963 | -73.79816 | 97 ft | 196 kts | 300° |
| 2026-05-08 14:32 | 40.64653 | -73.81277 | 1035 ft | 182 kts | 302° |
| 2026-05-08 14:33 | 40.65333 | -73.82665 | 1934 ft | 180 kts | 300° |
| 2026-05-08 14:33 | 40.65685 | -73.84313 | 2201 ft | 203 kts | 265° |
| 2026-05-08 14:33 | 40.65068 | -73.86103 | 2414 ft | 235 kts | 227° |
| 2026-05-08 14:33 | 40.63690 | -73.87384 | 2918 ft | 250 kts | 216° |
| 2026-05-08 14:34 | 40.62187 | -73.88620 | 3523 ft | 258 kts | 211° |
| 2026-05-08 14:34 | 40.60401 | -73.89147 | 4075 ft | 276 kts | 176° |
| 2026-05-08 14:34 | 40.58530 | -73.88527 | 4791 ft | 282 kts | 166° |
| 2026-05-08 14:34 | 40.56647 | -73.87754 | 5570 ft | 284 kts | 166° |
| 2026-05-08 14:35 | 40.54752 | -73.86978 | 6366 ft | 285 kts | 164° |
| 2026-05-08 14:35 | 40.53027 | -73.85631 | 6877 ft | 299 kts | 133° |
| 2026-05-08 14:35 | 40.52044 | -73.83233 | 7507 ft | 302 kts | 99° |
| 2026-05-08 14:35 | 40.52123 | -73.80520 | 8147 ft | 298 kts | 66° |
| 2026-05-08 14:36 | 40.53174 | -73.78243 | 8766 ft | 290 kts | 39° |
| 2026-05-08 14:36 | 40.54746 | -73.76621 | 9403 ft | 286 kts | 25° |
| 2026-05-08 14:36 | 40.56466 | -73.75273 | 10060 ft | 289 kts | 23° |
| 2026-05-08 14:36 | 40.58256 | -73.73953 | 10460 ft | 304 kts | 22° |
| 2026-05-08 14:37 | 40.60181 | -73.72561 | 10631 ft | 327 kts | 22° |
| 2026-05-08 14:37 | 40.62247 | -73.71067 | 10833 ft | 351 kts | 23° |
| 2026-05-08 14:37 | 40.64448 | -73.69461 | 11160 ft | 369 kts | 24° |
| 2026-05-08 14:37 | 40.66721 | -73.67782 | 11781 ft | 380 kts | 24° |
| 2026-05-08 14:38 | 40.69012 | -73.66077 | 12593 ft | 386 kts | 24° |
| 2026-05-08 14:38 | 40.71368 | -73.64316 | 13474 ft | 392 kts | 23° |
| 2026-05-08 14:38 | 40.73759 | -73.62525 | 14248 ft | 398 kts | 23° |
| 2026-05-08 14:38 | 40.76185 | -73.60706 | 14994 ft | 404 kts | 22° |
| 2026-05-08 14:39 | 40.77846 | -73.59460 | 15508 ft | 408 kts | 22° |
| 2026-05-08 14:39 | 40.80332 | -73.57596 | 16285 ft | 414 kts | 22° |
| 2026-05-08 14:39 | 40.82852 | -73.55703 | 17100 ft | 419 kts | 22° |
| 2026-05-08 14:39 | 40.85367 | -73.53813 | 17845 ft | 425 kts | 21° |
| 2026-05-08 14:40 | 40.87951 | -73.51870 | 18545 ft | 431 kts | 21° |
| 2026-05-08 14:40 | 40.90569 | -73.49899 | 19218 ft | 435 kts | 21° |
| 2026-05-08 14:40 | 40.93207 | -73.47909 | 19931 ft | 438 kts | 21° |
| 2026-05-08 14:40 | 40.95866 | -73.45902 | 20636 ft | 441 kts | 20° |
| 2026-05-08 14:41 | 40.98545 | -73.43879 | 21315 ft | 445 kts | 20° |
| 2026-05-08 14:41 | 41.01252 | -73.41833 | 21952 ft | 451 kts | 20° |
| 2026-05-08 14:41 | 41.03997 | -73.39759 | 22553 ft | 456 kts | 20° |
| 2026-05-08 14:41 | 41.06762 | -73.37666 | 23187 ft | 460 kts | 20° |
| 2026-05-08 14:42 | 41.09548 | -73.35554 | 23771 ft | 464 kts | 20° |
| 2026-05-08 14:42 | 41.12363 | -73.33417 | 24278 ft | 468 kts | 20° |
| 2026-05-08 14:42 | 41.15200 | -73.31262 | 24762 ft | 472 kts | 19° |
| 2026-05-08 14:42 | 41.18064 | -73.29085 | 25264 ft | 477 kts | 20° |
| 2026-05-08 14:43 | 41.20970 | -73.26876 | 25588 ft | 485 kts | 20° |
| 2026-05-08 14:43 | 41.23901 | -73.24640 | 26118 ft | 486 kts | 20° |
| 2026-05-08 14:43 | 41.26844 | -73.22389 | 26615 ft | 490 kts | 19° |
| 2026-05-08 14:43 | 41.29811 | -73.20122 | 27050 ft | 494 kts | 19° |
| 2026-05-08 14:44 | 41.32804 | -73.17839 | 27419 ft | 498 kts | 20° |
| 2026-05-08 14:44 | 41.35748 | -73.15294 | 27800 ft | 514 kts | 28° |
| 2026-05-08 14:44 | 41.38450 | -73.12049 | 28233 ft | 531 kts | 38° |
| 2026-05-08 14:44 | 41.40824 | -73.08200 | 28615 ft | 546 kts | 48° |
| 2026-05-08 14:45 | 41.42830 | -73.03849 | 28990 ft | 554 kts | 53° |
| 2026-05-08 14:45 | 41.44738 | -72.99369 | 29336 ft | 558 kts | 54° |
| 2026-05-08 14:45 | 41.46639 | -72.94838 | 29715 ft | 560 kts | 54° |
| 2026-05-08 14:45 | 41.48555 | -72.90318 | 30159 ft | 560 kts | 53° |
| 2026-05-08 14:46 | 41.50466 | -72.85878 | 30599 ft | 558 kts | 53° |
| 2026-05-08 14:46 | 41.52412 | -72.81414 | 31080 ft | 555 kts | 53° |
| 2026-05-08 14:46 | 41.54360 | -72.76979 | 31525 ft | 554 kts | 53° |
| 2026-05-08 14:46 | 41.56310 | -72.72545 | 31942 ft | 553 kts | 53° |
| 2026-05-08 14:47 | 41.58256 | -72.68111 | 32327 ft | 553 kts | 53° |
| 2026-05-08 14:47 | 41.60195 | -72.63675 | 32706 ft | 552 kts | 53° |
| 2026-05-08 14:47 | 41.62123 | -72.59251 | 33056 ft | 552 kts | 54° |
| 2026-05-08 14:47 | 41.64055 | -72.54809 | 33384 ft | 552 kts | 54° |
| 2026-05-08 14:48 | 41.66000 | -72.50396 | 33755 ft | 551 kts | 53° |
| 2026-05-08 14:48 | 41.67972 | -72.46012 | 34159 ft | 548 kts | 53° |
| 2026-05-08 14:48 | 41.69951 | -72.41651 | 34453 ft | 548 kts | 53° |
| 2026-05-08 14:48 | 41.71932 | -72.37288 | 34661 ft | 549 kts | 53° |
| 2026-05-08 14:49 | 41.73913 | -72.32908 | 34844 ft | 551 kts | 53° |
| 2026-05-08 14:49 | 41.75899 | -72.28498 | 34880 ft | 555 kts | 54° |
| 2026-05-08 14:49 | 41.79854 | -72.19652 | 34934 ft | 551 kts | 54° |
| 2026-05-08 14:50 | 41.83761 | -72.10876 | 34963 ft | 546 kts | 54° |
| 2026-05-08 14:50 | 41.87643 | -72.02146 | 34939 ft | 543 kts | 54° |
| 2026-05-08 14:51 | 41.91507 | -71.93435 | 34929 ft | 542 kts | 54° |
| 2026-05-08 14:51 | 41.95581 | -71.84972 | 34923 ft | 537 kts | 47° |
| 2026-05-08 14:52 | 42.03184 | -71.74180 | 34935 ft | 532 kts | 37° |
| 2026-05-08 14:53 | 42.08558 | -71.67298 | 34921 ft | 535 kts | 38° |
| 2026-05-08 14:53 | 42.13923 | -71.60327 | 34943 ft | 536 kts | 38° |
| 2026-05-08 14:54 | 42.19276 | -71.53292 | 34903 ft | 537 kts | 39° |
| 2026-05-08 14:54 | 42.24613 | -71.46246 | 34901 ft | 537 kts | 39° |
| 2026-05-08 14:55 | 42.29945 | -71.39197 | 34952 ft | 536 kts | 39° |
| 2026-05-08 14:55 | 42.35268 | -71.32149 | 34910 ft | 535 kts | 39° |
| 2026-05-08 14:56 | 42.40579 | -71.25098 | 34899 ft | 534 kts | 39° |
| 2026-05-08 14:56 | 42.45871 | -71.18053 | 34938 ft | 533 kts | 39° |
| 2026-05-08 14:57 | 42.51150 | -71.11010 | 34917 ft | 532 kts | 39° |
| 2026-05-08 14:57 | 42.56417 | -71.03964 | 34908 ft | 531 kts | 39° |
| 2026-05-08 14:58 | 42.61668 | -70.96922 | 34910 ft | 531 kts | 39° |
| 2026-05-08 14:58 | 42.66859 | -70.89866 | 34904 ft | 533 kts | 43° |
| 2026-05-08 14:59 | 42.71401 | -70.81848 | 34892 ft | 538 kts | 53° |
| 2026-05-08 14:59 | 42.77420 | -70.68928 | 34932 ft | 539 kts | 54° |
| 2026-05-08 15:00 | 42.81450 | -70.60300 | 34889 ft | 540 kts | 54° |
| 2026-05-08 15:00 | 42.85507 | -70.51690 | 34866 ft | 540 kts | 54° |
| 2026-05-08 15:01 | 42.89563 | -70.43086 | 34876 ft | 539 kts | 54° |
| 2026-05-08 15:01 | 42.93613 | -70.34466 | 34888 ft | 539 kts | 54° |
| 2026-05-08 15:02 | 42.97623 | -70.25898 | 34886 ft | 538 kts | 54° |
| 2026-05-08 15:02 | 43.01647 | -70.17273 | 34862 ft | 537 kts | 55° |
| 2026-05-08 15:03 | 43.05657 | -70.08653 | 34874 ft | 537 kts | 55° |
| 2026-05-08 15:03 | 43.09657 | -70.00028 | 34872 ft | 536 kts | 55° |
| 2026-05-08 15:04 | 43.13649 | -69.91397 | 34882 ft | 537 kts | 55° |
| 2026-05-08 15:04 | 43.17637 | -69.82750 | 34866 ft | 537 kts | 55° |
| 2026-05-08 15:05 | 43.21627 | -69.74071 | 34888 ft | 538 kts | 56° |
| 2026-05-08 15:05 | 43.25612 | -69.65380 | 34881 ft | 538 kts | 56° |
| 2026-05-08 15:06 | 43.29594 | -69.56666 | 34873 ft | 539 kts | 56° |
| 2026-05-08 15:06 | 43.33565 | -69.47953 | 34886 ft | 538 kts | 56° |
| 2026-05-08 15:07 | 43.37506 | -69.39277 | 34871 ft | 538 kts | 56° |
| 2026-05-08 15:07 | 43.41462 | -69.30545 | 34852 ft | 538 kts | 56° |
| 2026-05-08 15:08 | 43.44770 | -69.23223 | 34861 ft | 538 kts | 56° |
| 2026-05-08 15:08 | 43.49359 | -69.13037 | 34868 ft | 540 kts | 57° |
| 2026-05-08 15:09 | 43.53310 | -69.04235 | 34864 ft | 541 kts | 57° |
| 2026-05-08 15:09 | 43.57263 | -68.95404 | 34858 ft | 541 kts | 57° |
| 2026-05-08 15:10 | 43.61212 | -68.86554 | 34872 ft | 542 kts | 57° |
| 2026-05-08 15:10 | 43.65159 | -68.77681 | 34859 ft | 542 kts | 57° |
| 2026-05-08 15:11 | 43.69093 | -68.68812 | 34837 ft | 541 kts | 57° |
| 2026-05-08 15:11 | 43.73020 | -68.59929 | 34868 ft | 541 kts | 58° |
| 2026-05-08 15:12 | 43.76938 | -68.51043 | 34859 ft | 541 kts | 58° |
| 2026-05-08 15:12 | 43.80850 | -68.42141 | 34846 ft | 541 kts | 58° |
| 2026-05-08 15:13 | 43.84755 | -68.33227 | 34843 ft | 541 kts | 58° |
| 2026-05-08 15:13 | 43.88650 | -68.24309 | 34851 ft | 541 kts | 58° |
| 2026-05-08 15:14 | 43.92540 | -68.15375 | 34840 ft | 541 kts | 58° |
| 2026-05-08 15:14 | 43.96426 | -68.06424 | 34829 ft | 541 kts | 58° |
| 2026-05-08 15:15 | 44.00311 | -67.97445 | 34853 ft | 543 kts | 59° |
| 2026-05-08 15:15 | 44.04175 | -67.88488 | 34843 ft | 545 kts | 59° |
| 2026-05-08 15:16 | 44.08070 | -67.79429 | 34830 ft | 546 kts | 59° |
| 2026-05-08 15:16 | 44.11957 | -67.70361 | 34821 ft | 546 kts | 59° |
| 2026-05-08 15:17 | 44.15835 | -67.61287 | 34834 ft | 545 kts | 59° |
| 2026-05-08 15:17 | 44.19702 | -67.52208 | 34818 ft | 544 kts | 59° |
| 2026-05-08 15:18 | 44.23552 | -67.43140 | 34810 ft | 543 kts | 60° |
| 2026-05-08 15:18 | 44.27392 | -67.34069 | 34821 ft | 543 kts | 60° |
| 2026-05-08 15:19 | 44.31232 | -67.24966 | 34814 ft | 544 kts | 60° |
| 2026-05-08 15:19 | 44.35063 | -67.15855 | 34805 ft | 544 kts | 60° |
| 2026-05-08 15:20 | 44.38892 | -67.06723 | 34800 ft | 544 kts | 60° |
| 2026-05-08 15:20 | 44.42885 | -66.97732 | 34795 ft | 545 kts | 53° |
| 2026-05-08 15:21 | 44.47583 | -66.89428 | 34801 ft | 544 kts | 51° |
| 2026-05-08 15:21 | 44.52359 | -66.81201 | 34757 ft | 544 kts | 51° |
| 2026-05-08 15:22 | 44.57111 | -66.72915 | 34789 ft | 545 kts | 52° |
| 2026-05-08 15:22 | 44.61834 | -66.64569 | 34783 ft | 547 kts | 52° |
| 2026-05-08 15:23 | 44.66554 | -66.56179 | 34774 ft | 548 kts | 52° |
| 2026-05-08 15:23 | 44.70474 | -66.49195 | 34769 ft | 548 kts | 52° |
| 2026-05-08 15:24 | 44.75195 | -66.40769 | 34768 ft | 548 kts | 52° |
| 2026-05-08 15:24 | 44.79909 | -66.32334 | 34763 ft | 548 kts | 52° |
| 2026-05-08 15:25 | 44.84618 | -66.23885 | 34767 ft | 548 kts | 52° |
| 2026-05-08 15:25 | 44.89315 | -66.15431 | 34770 ft | 548 kts | 53° |
| 2026-05-08 15:26 | 44.94005 | -66.06961 | 34769 ft | 547 kts | 53° |
| 2026-05-08 15:26 | 44.98660 | -65.98532 | 34769 ft | 547 kts | 53° |
| 2026-05-08 15:27 | 45.03337 | -65.90038 | 34761 ft | 547 kts | 53° |
| 2026-05-08 15:27 | 45.08000 | -65.81543 | 34754 ft | 547 kts | 53° |
| 2026-05-08 15:28 | 45.12659 | -65.73030 | 34749 ft | 547 kts | 53° |
| 2026-05-08 15:28 | 45.17309 | -65.64509 | 34748 ft | 547 kts | 54° |
| 2026-05-08 15:29 | 45.21955 | -65.55970 | 34742 ft | 547 kts | 54° |
| 2026-05-08 15:29 | 45.26596 | -65.47414 | 34743 ft | 547 kts | 54° |
| 2026-05-08 15:30 | 45.31229 | -65.38846 | 34738 ft | 547 kts | 54° |
| 2026-05-08 15:30 | 45.35860 | -65.30257 | 34735 ft | 548 kts | 54° |
| 2026-05-08 15:31 | 45.40488 | -65.21648 | 34730 ft | 548 kts | 54° |
| 2026-05-08 15:31 | 45.45112 | -65.13020 | 34719 ft | 548 kts | 55° |
| 2026-05-08 15:32 | 45.49739 | -65.04359 | 34727 ft | 550 kts | 55° |
| 2026-05-08 15:32 | 45.54370 | -64.95663 | 34722 ft | 551 kts | 55° |
| 2026-05-08 15:33 | 45.59007 | -64.86931 | 34715 ft | 552 kts | 55° |
| 2026-05-08 15:33 | 45.63644 | -64.78170 | 34717 ft | 552 kts | 56° |
| 2026-05-08 15:34 | 45.68271 | -64.69403 | 34721 ft | 552 kts | 56° |
| 2026-05-08 15:34 | 45.72892 | -64.60620 | 34706 ft | 552 kts | 56° |
| 2026-05-08 15:35 | 45.77497 | -64.51840 | 34706 ft | 551 kts | 56° |
| 2026-05-08 15:35 | 45.82089 | -64.43056 | 34692 ft | 550 kts | 56° |
| 2026-05-08 15:36 | 45.86638 | -64.34329 | 34649 ft | 549 kts | 57° |
| 2026-05-08 15:36 | 45.91193 | -64.25563 | 34697 ft | 548 kts | 57° |
| 2026-05-08 15:37 | 45.95751 | -64.16761 | 34693 ft | 549 kts | 57° |
| 2026-05-08 15:37 | 46.00316 | -64.07917 | 34681 ft | 551 kts | 57° |
| 2026-05-08 15:38 | 46.04879 | -63.99052 | 34692 ft | 552 kts | 57° |
| 2026-05-08 15:38 | 46.09451 | -63.90143 | 34692 ft | 553 kts | 57° |
| 2026-05-08 15:39 | 46.13991 | -63.81268 | 34692 ft | 554 kts | 57° |
| 2026-05-08 15:39 | 46.18555 | -63.72317 | 34701 ft | 553 kts | 57° |
| 2026-05-08 15:40 | 46.23108 | -63.63360 | 34692 ft | 553 kts | 58° |
| 2026-05-08 15:40 | 46.27652 | -63.54390 | 34698 ft | 553 kts | 58° |
| 2026-05-08 15:41 | 46.32190 | -63.45402 | 34640 ft | 553 kts | 58° |
| 2026-05-08 15:41 | 46.36717 | -63.36408 | 34683 ft | 553 kts | 59° |
| 2026-05-08 15:42 | 46.41255 | -63.27364 | 34690 ft | 555 kts | 59° |
| 2026-05-08 15:42 | 46.45790 | -63.18294 | 34701 ft | 555 kts | 59° |
| 2026-05-08 15:43 | 46.50316 | -63.09215 | 34696 ft | 556 kts | 59° |
| 2026-05-08 15:43 | 46.54812 | -63.00169 | 34702 ft | 555 kts | 59° |
| 2026-05-08 15:44 | 46.59332 | -62.91042 | 34705 ft | 556 kts | 59° |
| 2026-05-08 15:44 | 46.63839 | -62.81912 | 34719 ft | 556 kts | 59° |
| 2026-05-08 15:45 | 46.68340 | -62.72765 | 34712 ft | 556 kts | 60° |
| 2026-05-08 15:45 | 46.72835 | -62.63598 | 34717 ft | 555 kts | 60° |
| 2026-05-08 15:46 | 46.77320 | -62.54422 | 34650 ft | 555 kts | 60° |
| 2026-05-08 15:46 | 46.81789 | -62.45253 | 34713 ft | 553 kts | 60° |
| 2026-05-08 15:47 | 46.86239 | -62.36088 | 34716 ft | 553 kts | 60° |
| 2026-05-08 15:47 | 46.90679 | -62.26913 | 34721 ft | 552 kts | 61° |
| 2026-05-08 15:48 | 46.97318 | -62.13138 | 34712 ft | 552 kts | 61° |
| 2026-05-08 15:49 | 47.01731 | -62.03945 | 34720 ft | 551 kts | 61° |
| 2026-05-08 15:49 | 47.06135 | -61.94738 | 34718 ft | 551 kts | 61° |
| 2026-05-08 15:50 | 47.10530 | -61.85521 | 34709 ft | 551 kts | 62° |
| 2026-05-08 15:50 | 47.14889 | -61.76349 | 34716 ft | 551 kts | 62° |
| 2026-05-08 15:51 | 47.19277 | -61.67081 | 34709 ft | 552 kts | 62° |
| 2026-05-08 15:51 | 47.23655 | -61.57811 | 34662 ft | 552 kts | 63° |
| 2026-05-08 15:52 | 47.28028 | -61.48520 | 34715 ft | 552 kts | 64° |
| 2026-05-08 15:52 | 47.32403 | -61.39181 | 34716 ft | 555 kts | 64° |
| 2026-05-08 15:53 | 47.36784 | -61.29801 | 34719 ft | 556 kts | 64° |
| 2026-05-08 15:53 | 47.41173 | -61.20378 | 34718 ft | 557 kts | 64° |
| 2026-05-08 15:54 | 47.45558 | -61.10934 | 34712 ft | 557 kts | 64° |
| 2026-05-08 15:54 | 47.49935 | -61.01474 | 34710 ft | 557 kts | 64° |
| 2026-05-08 15:55 | 47.54267 | -60.92079 | 34709 ft | 556 kts | 64° |
| 2026-05-08 15:55 | 47.60776 | -60.77895 | 34708 ft | 555 kts | 65° |
| 2026-05-08 15:56 | 47.65103 | -60.68426 | 34715 ft | 554 kts | 65° |
| 2026-05-08 15:56 | 47.69421 | -60.58942 | 34624 ft | 556 kts | 66° |
| 2026-05-08 15:57 | 47.73767 | -60.49346 | 34714 ft | 564 kts | 66° |
| 2026-05-08 15:57 | 47.78169 | -60.39603 | 34704 ft | 568 kts | 66° |
| 2026-05-08 15:58 | 47.82575 | -60.29843 | 34701 ft | 568 kts | 66° |
| 2026-05-08 15:58 | 47.86944 | -60.20126 | 34701 ft | 568 kts | 66° |
| 2026-05-08 15:59 | 47.91327 | -60.10331 | 34699 ft | 568 kts | 67° |
| 2026-05-08 15:59 | 47.95700 | -60.00519 | 34695 ft | 568 kts | 67° |
| 2026-05-08 16:00 | 48.00061 | -59.90697 | 34685 ft | 568 kts | 67° |
| 2026-05-08 16:00 | 48.04422 | -59.80841 | 34695 ft | 569 kts | 67° |
| 2026-05-08 16:01 | 48.08789 | -59.70937 | 34699 ft | 570 kts | 67° |
| 2026-05-08 16:01 | 48.13146 | -59.61019 | 34595 ft | 571 kts | 67° |
| 2026-05-08 16:02 | 48.17499 | -59.51083 | 34677 ft | 569 kts | 67° |
| 2026-05-08 16:02 | 48.21829 | -59.41155 | 34691 ft | 569 kts | 67° |
| 2026-05-08 16:03 | 48.26147 | -59.31212 | 34694 ft | 569 kts | 67° |
| 2026-05-08 16:03 | 48.30464 | -59.21240 | 34685 ft | 569 kts | 68° |
| 2026-05-08 16:04 | 48.34773 | -59.11253 | 34694 ft | 569 kts | 68° |
| 2026-05-08 16:04 | 48.39044 | -59.01316 | 34693 ft | 569 kts | 68° |
| 2026-05-08 16:05 | 48.43334 | -58.91295 | 34673 ft | 569 kts | 67° |
| 2026-05-08 16:05 | 48.47614 | -58.81265 | 34703 ft | 569 kts | 67° |
| 2026-05-08 16:06 | 48.51887 | -58.71214 | 34695 ft | 569 kts | 67° |
| 2026-05-08 16:06 | 48.56148 | -58.61150 | 34689 ft | 569 kts | 68° |
| 2026-05-08 16:07 | 48.60404 | -58.51051 | 34646 ft | 570 kts | 66° |
| 2026-05-08 16:07 | 48.64663 | -58.40918 | 34667 ft | 572 kts | 66° |
| 2026-05-08 16:08 | 48.68928 | -58.30730 | 34669 ft | 574 kts | 66° |
| 2026-05-08 16:08 | 48.73191 | -58.20508 | 34663 ft | 575 kts | 66° |
| 2026-05-08 16:09 | 48.76742 | -58.11973 | 34667 ft | 575 kts | 66° |
| 2026-05-08 16:09 | 48.81690 | -58.00023 | 34682 ft | 576 kts | 66° |
| 2026-05-08 16:10 | 48.85943 | -57.89702 | 34674 ft | 577 kts | 66° |
| 2026-05-08 16:10 | 48.90193 | -57.79358 | 34676 ft | 577 kts | 66° |
| 2026-05-08 16:11 | 48.94427 | -57.69014 | 34669 ft | 576 kts | 66° |
| 2026-05-08 16:11 | 48.98643 | -57.58669 | 34660 ft | 575 kts | 67° |
| 2026-05-08 16:12 | 49.02134 | -57.50074 | 34652 ft | 574 kts | 67° |
| 2026-05-08 16:12 | 49.06312 | -57.39751 | 34650 ft | 571 kts | 67° |
| 2026-05-08 16:13 | 49.10466 | -57.29446 | 34655 ft | 570 kts | 67° |
| 2026-05-08 16:13 | 49.14603 | -57.19139 | 34661 ft | 569 kts | 68° |
| 2026-05-08 16:14 | 49.18726 | -57.08829 | 34679 ft | 569 kts | 67° |
| 2026-05-08 16:14 | 49.22846 | -56.98480 | 34680 ft | 570 kts | 67° |
| 2026-05-08 16:15 | 49.26966 | -56.88096 | 34682 ft | 571 kts | 67° |
| 2026-05-08 16:15 | 49.31084 | -56.77678 | 34677 ft | 572 kts | 67° |
| 2026-05-08 16:16 | 49.35205 | -56.67208 | 34669 ft | 574 kts | 67° |
| 2026-05-08 16:16 | 49.39328 | -56.56701 | 34667 ft | 574 kts | 67° |
| 2026-05-08 16:17 | 49.43431 | -56.46203 | 34666 ft | 573 kts | 67° |
| 2026-05-08 16:17 | 49.47510 | -56.35722 | 34675 ft | 571 kts | 67° |
| 2026-05-08 16:18 | 49.51572 | -56.25237 | 34682 ft | 570 kts | 67° |
| 2026-05-08 16:18 | 49.55626 | -56.14731 | 34682 ft | 570 kts | 67° |
| 2026-05-08 16:19 | 49.59667 | -56.04216 | 34667 ft | 570 kts | 67° |
| 2026-05-08 16:19 | 49.63695 | -55.93696 | 34687 ft | 570 kts | 67° |
| 2026-05-08 16:20 | 49.67716 | -55.83154 | 34668 ft | 569 kts | 67° |
| 2026-05-08 16:20 | 49.71724 | -55.72600 | 34694 ft | 569 kts | 67° |
| 2026-05-08 16:21 | 49.75718 | -55.62039 | 34660 ft | 569 kts | 67° |
| 2026-05-08 16:21 | 49.79700 | -55.51471 | 34767 ft | 568 kts | 67° |
| 2026-05-08 16:22 | 49.81684 | -55.46191 | 34899 ft | 567 kts | 67° |
| 2026-05-08 16:22 | 49.83662 | -55.40913 | 35018 ft | 566 kts | 67° |
| 2026-05-08 16:22 | 49.85636 | -55.35637 | 35156 ft | 565 kts | 67° |
| 2026-05-08 16:22 | 49.87605 | -55.30366 | 35272 ft | 564 kts | 67° |
| 2026-05-08 16:23 | 49.89562 | -55.25115 | 35431 ft | 562 kts | 67° |
| 2026-05-08 16:23 | 49.91512 | -55.19874 | 35644 ft | 560 kts | 67° |
| 2026-05-08 16:23 | 49.95403 | -55.09367 | 35680 ft | 561 kts | 67° |
| 2026-05-08 16:24 | 49.99274 | -54.98877 | 35702 ft | 560 kts | 67° |
| 2026-05-08 16:24 | 50.03118 | -54.88418 | 35668 ft | 560 kts | 67° |
| 2026-05-08 16:25 | 50.06969 | -54.77907 | 35678 ft | 558 kts | 67° |
| 2026-05-08 16:25 | 50.10795 | -54.67422 | 35688 ft | 556 kts | 67° |
| 2026-05-08 16:26 | 50.14603 | -54.56937 | 35691 ft | 556 kts | 67° |
| 2026-05-08 16:26 | 50.18397 | -54.46445 | 35686 ft | 555 kts | 67° |
| 2026-05-08 16:27 | 50.22186 | -54.35926 | 35695 ft | 556 kts | 67° |
| 2026-05-08 16:27 | 50.25970 | -54.25378 | 35691 ft | 557 kts | 67° |
| 2026-05-08 16:28 | 50.29751 | -54.14794 | 35695 ft | 558 kts | 67° |
| 2026-05-08 16:28 | 50.33531 | -54.04173 | 35651 ft | 558 kts | 67° |
| 2026-05-08 16:29 | 50.37297 | -53.93550 | 35691 ft | 558 kts | 68° |
| 2026-05-08 16:29 | 50.41048 | -53.82917 | 35699 ft | 558 kts | 68° |
| 2026-05-08 16:30 | 50.44793 | -53.72260 | 35684 ft | 557 kts | 67° |
| 2026-05-08 16:30 | 50.48524 | -53.61603 | 35694 ft | 557 kts | 68° |
| 2026-05-08 16:31 | 50.52239 | -53.50942 | 35700 ft | 556 kts | 68° |
| 2026-05-08 16:31 | 50.55939 | -53.40279 | 35698 ft | 555 kts | 68° |
| 2026-05-08 16:32 | 50.59625 | -53.29614 | 35701 ft | 554 kts | 68° |
| 2026-05-08 16:32 | 50.63271 | -53.19019 | 35708 ft | 554 kts | 68° |
| 2026-05-08 16:33 | 50.66929 | -53.08343 | 35703 ft | 553 kts | 68° |
| 2026-05-08 16:33 | 50.70571 | -52.97669 | 35706 ft | 553 kts | 68° |
| 2026-05-08 16:34 | 50.74202 | -52.86982 | 35707 ft | 552 kts | 68° |
| 2026-05-08 16:34 | 50.77811 | -52.76316 | 35721 ft | 549 kts | 68° |
| 2026-05-08 16:35 | 50.81403 | -52.65657 | 35721 ft | 549 kts | 68° |
| 2026-05-08 16:35 | 50.84780 | -52.54888 | 35711 ft | 543 kts | 72° |
| 2026-05-08 16:36 | 50.87733 | -52.43904 | 35720 ft | 542 kts | 73° |
| 2026-05-08 16:36 | 50.90636 | -52.32888 | 35725 ft | 543 kts | 73° |
| 2026-05-08 16:37 | 50.93565 | -52.21853 | 35731 ft | 543 kts | 73° |
| 2026-05-08 16:37 | 50.96489 | -52.10878 | 35710 ft | 544 kts | 73° |
| 2026-05-08 16:38 | 50.99427 | -51.99813 | 35731 ft | 544 kts | 73° |
| 2026-05-08 16:38 | 51.02351 | -51.88743 | 35740 ft | 543 kts | 73° |
| 2026-05-08 16:39 | 51.05261 | -51.77660 | 35703 ft | 543 kts | 73° |
| 2026-05-08 16:39 | 51.08153 | -51.66590 | 35736 ft | 542 kts | 73° |
| 2026-05-08 16:40 | 51.11033 | -51.55509 | 35754 ft | 542 kts | 72° |
| 2026-05-08 16:40 | 51.13908 | -51.44398 | 35755 ft | 543 kts | 73° |
| 2026-05-08 16:41 | 51.16773 | -51.33272 | 35753 ft | 543 kts | 73° |
| 2026-05-08 16:42 | 51.21058 | -51.16525 | 35752 ft | 544 kts | 72° |
| 2026-05-08 16:42 | 51.23906 | -51.05325 | 35779 ft | 545 kts | 72° |
| 2026-05-08 16:43 | 51.26730 | -50.94168 | 35773 ft | 545 kts | 72° |
| 2026-05-08 16:43 | 51.29557 | -50.82939 | 35769 ft | 545 kts | 73° |
| 2026-05-08 16:44 | 51.32380 | -50.71670 | 35747 ft | 545 kts | 72° |
| 2026-05-08 16:44 | 51.35183 | -50.60425 | 35784 ft | 543 kts | 72° |
| 2026-05-08 16:45 | 51.37970 | -50.49186 | 35787 ft | 543 kts | 72° |
| 2026-05-08 16:45 | 51.40741 | -50.37955 | 35793 ft | 542 kts | 72° |
| 2026-05-08 16:46 | 51.43500 | -50.26713 | 35794 ft | 542 kts | 72° |
| 2026-05-08 16:46 | 51.46244 | -50.15478 | 35807 ft | 540 kts | 72° |
| 2026-05-08 16:47 | 51.48971 | -50.04261 | 35811 ft | 540 kts | 72° |
| 2026-05-08 16:47 | 51.51715 | -49.93050 | 35814 ft | 540 kts | 71° |
| 2026-05-08 16:48 | 51.54533 | -49.81886 | 35825 ft | 539 kts | 71° |
| 2026-05-08 16:48 | 51.57354 | -49.70715 | 35831 ft | 539 kts | 71° |
| 2026-05-08 16:49 | 51.60131 | -49.59606 | 35825 ft | 538 kts | 71° |
| 2026-05-08 16:49 | 51.62901 | -49.48429 | 35824 ft | 537 kts | 71° |
| 2026-05-08 16:50 | 51.65659 | -49.37236 | 35838 ft | 537 kts | 71° |
| 2026-05-08 16:50 | 51.68400 | -49.26054 | 35848 ft | 536 kts | 71° |
| 2026-05-08 16:51 | 51.71134 | -49.14851 | 35854 ft | 536 kts | 71° |
| 2026-05-08 16:51 | 51.73855 | -49.03644 | 35856 ft | 536 kts | 71° |
| 2026-05-08 16:52 | 51.76566 | -48.92419 | 35865 ft | 536 kts | 71° |
| 2026-05-08 16:52 | 51.79265 | -48.81186 | 35857 ft | 537 kts | 71° |
| 2026-05-08 16:53 | 51.83294 | -48.64312 | 35874 ft | 537 kts | 71° |
| 2026-05-08 16:53 | 51.85971 | -48.53027 | 35867 ft | 537 kts | 71° |
| 2026-05-08 16:54 | 51.88633 | -48.41746 | 35882 ft | 537 kts | 71° |
| 2026-05-08 16:54 | 51.91285 | -48.30451 | 35888 ft | 537 kts | 71° |
| 2026-05-08 16:55 | 51.93927 | -48.19134 | 35886 ft | 537 kts | 71° |
| 2026-05-08 16:55 | 51.96558 | -48.07808 | 35895 ft | 537 kts | 71° |
| 2026-05-08 16:56 | 51.99163 | -47.96535 | 35913 ft | 537 kts | 71° |
| 2026-05-08 16:56 | 52.01772 | -47.85183 | 35904 ft | 537 kts | 71° |
| 2026-05-08 16:57 | 52.03949 | -47.75660 | 35932 ft | 537 kts | 71° |
| 2026-05-08 16:57 | 52.06961 | -47.62419 | 35929 ft | 537 kts | 71° |
| 2026-05-08 16:58 | 52.09106 | -47.52940 | 35924 ft | 538 kts | 71° |
| 2026-05-08 16:58 | 52.11675 | -47.41523 | 35935 ft | 537 kts | 71° |
| 2026-05-08 16:59 | 52.14229 | -47.30115 | 35934 ft | 535 kts | 70° |
| 2026-05-08 16:59 | 52.16763 | -47.18737 | 35945 ft | 534 kts | 70° |
| 2026-05-08 17:00 | 52.19281 | -47.07373 | 35955 ft | 533 kts | 71° |
| 2026-05-08 17:00 | 52.21782 | -46.96014 | 35968 ft | 532 kts | 70° |
| 2026-05-08 17:01 | 52.24267 | -46.84667 | 35979 ft | 531 kts | 71° |
| 2026-05-08 17:01 | 52.26740 | -46.73312 | 35978 ft | 531 kts | 71° |
| 2026-05-08 17:02 | 52.29205 | -46.61936 | 35998 ft | 531 kts | 71° |
| 2026-05-08 17:02 | 52.31657 | -46.50553 | 35997 ft | 531 kts | 71° |
| 2026-05-08 17:03 | 52.34101 | -46.39143 | 36009 ft | 531 kts | 71° |
| 2026-05-08 17:03 | 52.36534 | -46.27727 | 36015 ft | 531 kts | 71° |
| 2026-05-08 17:04 | 52.38937 | -46.16381 | 36007 ft | 531 kts | 70° |
| 2026-05-08 17:04 | 52.41354 | -46.04907 | 36026 ft | 529 kts | 70° |
| 2026-05-08 17:05 | 52.43739 | -45.93518 | 36029 ft | 527 kts | 70° |
| 2026-05-08 17:05 | 52.46093 | -45.82216 | 36042 ft | 526 kts | 70° |
| 2026-05-08 17:06 | 52.48446 | -45.70856 | 36044 ft | 526 kts | 71° |
| 2026-05-08 17:06 | 52.50786 | -45.59495 | 36053 ft | 525 kts | 71° |
| 2026-05-08 17:07 | 52.53112 | -45.48132 | 36064 ft | 525 kts | 70° |
| 2026-05-08 17:07 | 52.55431 | -45.36740 | 36071 ft | 526 kts | 70° |
| 2026-05-08 17:08 | 52.57739 | -45.25336 | 36083 ft | 526 kts | 70° |
| 2026-05-08 17:08 | 52.60037 | -45.13918 | 36085 ft | 526 kts | 70° |
| 2026-05-08 17:09 | 52.62324 | -45.02486 | 36094 ft | 526 kts | 71° |
| 2026-05-08 17:09 | 52.64601 | -44.91038 | 36092 ft | 526 kts | 71° |
| 2026-05-08 17:10 | 52.66868 | -44.79571 | 36102 ft | 526 kts | 71° |
| 2026-05-08 17:10 | 52.69123 | -44.68096 | 36117 ft | 526 kts | 71° |
| 2026-05-08 17:11 | 52.71368 | -44.56605 | 36115 ft | 526 kts | 71° |
| 2026-05-08 17:11 | 52.73603 | -44.45096 | 36121 ft | 526 kts | 71° |
| 2026-05-08 17:12 | 52.75812 | -44.33652 | 36120 ft | 526 kts | 71° |
| 2026-05-08 17:12 | 52.78022 | -44.22136 | 36139 ft | 526 kts | 71° |
| 2026-05-08 17:13 | 52.80220 | -44.10611 | 36139 ft | 526 kts | 71° |
| 2026-05-08 17:13 | 52.82406 | -43.99079 | 36144 ft | 526 kts | 71° |
| 2026-05-08 17:14 | 52.84579 | -43.87546 | 36158 ft | 525 kts | 71° |
| 2026-05-08 17:14 | 52.86739 | -43.76005 | 36152 ft | 524 kts | 70° |
| 2026-05-08 17:15 | 52.88880 | -43.64501 | 36163 ft | 522 kts | 71° |
| 2026-05-08 17:15 | 52.91003 | -43.53017 | 36171 ft | 521 kts | 71° |
| 2026-05-08 17:16 | 52.93110 | -43.41550 | 36185 ft | 519 kts | 70° |
| 2026-05-08 17:16 | 52.95205 | -43.30084 | 36185 ft | 519 kts | 70° |
| 2026-05-08 17:17 | 52.97269 | -43.18715 | 36192 ft | 518 kts | 70° |
| 2026-05-08 17:17 | 52.99333 | -43.07275 | 36192 ft | 517 kts | 71° |
| 2026-05-08 17:18 | 53.01385 | -42.95827 | 36205 ft | 517 kts | 70° |
| 2026-05-08 17:18 | 53.03428 | -42.84358 | 36212 ft | 517 kts | 70° |
| 2026-05-08 17:19 | 53.05459 | -42.72890 | 36214 ft | 517 kts | 70° |
| 2026-05-08 17:19 | 53.07478 | -42.61408 | 36223 ft | 517 kts | 71° |
| 2026-05-08 17:20 | 53.09483 | -42.49931 | 36215 ft | 516 kts | 70° |
| 2026-05-08 17:20 | 53.11470 | -42.38485 | 36234 ft | 514 kts | 70° |
| 2026-05-08 17:21 | 53.13440 | -42.27060 | 36235 ft | 512 kts | 70° |
| 2026-05-08 17:21 | 53.15391 | -42.15682 | 36242 ft | 510 kts | 70° |
| 2026-05-08 17:22 | 53.17327 | -42.04310 | 36244 ft | 509 kts | 70° |
| 2026-05-08 17:22 | 53.19247 | -41.92964 | 36249 ft | 509 kts | 70° |
| 2026-05-08 17:23 | 53.21159 | -41.81595 | 36262 ft | 509 kts | 70° |
| 2026-05-08 17:23 | 53.23059 | -41.70218 | 36265 ft | 509 kts | 70° |
| 2026-05-08 17:24 | 53.24947 | -41.58832 | 36272 ft | 509 kts | 70° |
| 2026-05-08 17:24 | 53.26825 | -41.47439 | 36272 ft | 509 kts | 70° |
| 2026-05-08 17:25 | 53.28693 | -41.36028 | 36297 ft | 509 kts | 70° |
| 2026-05-08 17:25 | 53.30546 | -41.24627 | 36297 ft | 507 kts | 70° |
| 2026-05-08 17:26 | 53.32376 | -41.13285 | 36290 ft | 503 kts | 70° |
| 2026-05-08 17:26 | 53.34171 | -41.02087 | 36286 ft | 500 kts | 70° |
| 2026-05-08 17:27 | 53.35958 | -40.90880 | 36297 ft | 498 kts | 70° |
| 2026-05-08 17:27 | 53.37730 | -40.79686 | 36319 ft | 496 kts | 70° |
| 2026-05-08 17:28 | 53.39489 | -40.68506 | 36315 ft | 496 kts | 70° |
| 2026-05-08 17:28 | 53.41236 | -40.57320 | 36313 ft | 496 kts | 70° |
| 2026-05-08 17:29 | 53.42974 | -40.46118 | 36327 ft | 497 kts | 70° |
| 2026-05-08 17:29 | 53.44705 | -40.34881 | 36324 ft | 498 kts | 70° |
| 2026-05-08 17:30 | 53.46428 | -40.23611 | 36343 ft | 498 kts | 70° |
| 2026-05-08 17:30 | 53.48139 | -40.12348 | 36348 ft | 498 kts | 70° |
| 2026-05-08 17:31 | 53.49828 | -40.01158 | 36347 ft | 497 kts | 70° |
| 2026-05-08 17:31 | 53.51477 | -39.89920 | 36342 ft | 495 kts | 70° |
| 2026-05-08 17:32 | 53.53074 | -39.78701 | 36356 ft | 492 kts | 70° |
| 2026-05-08 17:32 | 53.54655 | -39.67517 | 36366 ft | 491 kts | 70° |
| 2026-05-08 17:33 | 53.56228 | -39.56362 | 36355 ft | 490 kts | 71° |
| 2026-05-08 17:33 | 53.57794 | -39.45202 | 36364 ft | 490 kts | 71° |
| 2026-05-08 17:34 | 53.59350 | -39.34030 | 36361 ft | 491 kts | 71° |
| 2026-05-08 17:34 | 53.60889 | -39.22888 | 36376 ft | 492 kts | 71° |
| 2026-05-08 17:35 | 53.62429 | -39.11657 | 36376 ft | 492 kts | 71° |
| 2026-05-08 17:35 | 53.63960 | -39.00407 | 36379 ft | 493 kts | 71° |
| 2026-05-08 17:36 | 53.65481 | -38.89139 | 36377 ft | 493 kts | 71° |
| 2026-05-08 17:36 | 53.66992 | -38.77861 | 36388 ft | 493 kts | 71° |
| 2026-05-08 17:37 | 53.68491 | -38.66588 | 36398 ft | 493 kts | 70° |
| 2026-05-08 17:37 | 53.69978 | -38.55310 | 36398 ft | 491 kts | 71° |
| 2026-05-08 17:38 | 53.71452 | -38.44049 | 36394 ft | 490 kts | 71° |
| 2026-05-08 17:38 | 53.72909 | -38.32825 | 36400 ft | 489 kts | 71° |
| 2026-05-08 17:39 | 53.74348 | -38.21664 | 36404 ft | 489 kts | 71° |
| 2026-05-08 17:39 | 53.75784 | -38.10425 | 36414 ft | 489 kts | 70° |
| 2026-05-08 17:40 | 53.77210 | -37.99186 | 36412 ft | 489 kts | 71° |
| 2026-05-08 17:40 | 53.78626 | -37.87934 | 36416 ft | 489 kts | 71° |
| 2026-05-08 17:41 | 53.80033 | -37.76659 | 36418 ft | 490 kts | 71° |
| 2026-05-08 17:41 | 53.81429 | -37.65373 | 36429 ft | 490 kts | 71° |
| 2026-05-08 17:42 | 53.82815 | -37.54076 | 36437 ft | 490 kts | 71° |
| 2026-05-08 17:42 | 53.84188 | -37.42786 | 36442 ft | 488 kts | 70° |
| 2026-05-08 17:43 | 53.85531 | -37.31644 | 36426 ft | 484 kts | 70° |
| 2026-05-08 17:43 | 53.86864 | -37.20494 | 36436 ft | 481 kts | 70° |
| 2026-05-08 17:44 | 53.88180 | -37.09414 | 36436 ft | 479 kts | 71° |
| 2026-05-08 17:44 | 53.89484 | -36.98343 | 36453 ft | 478 kts | 70° |
| 2026-05-08 17:45 | 53.90558 | -36.89157 | 36446 ft | 478 kts | 70° |
| 2026-05-08 17:45 | 53.91841 | -36.78086 | 36454 ft | 478 kts | 70° |
| 2026-05-08 17:46 | 53.93116 | -36.67000 | 36456 ft | 479 kts | 71° |
| 2026-05-08 17:46 | 53.94383 | -36.55884 | 36459 ft | 480 kts | 71° |
| 2026-05-08 17:47 | 53.95641 | -36.44737 | 36463 ft | 481 kts | 70° |
| 2026-05-08 17:47 | 53.96890 | -36.33573 | 36460 ft | 481 kts | 70° |
| 2026-05-08 17:48 | 53.98128 | -36.22402 | 36464 ft | 481 kts | 71° |
| 2026-05-08 17:48 | 53.99355 | -36.11241 | 36476 ft | 480 kts | 70° |
| 2026-05-08 17:49 | 54.00567 | -36.00102 | 36474 ft | 478 kts | 70° |
| 2026-05-08 17:49 | 54.01757 | -35.89072 | 36477 ft | 477 kts | 70° |
| 2026-05-08 17:50 | 54.02941 | -35.78003 | 36479 ft | 475 kts | 70° |
| 2026-05-08 17:50 | 54.04113 | -35.66948 | 36477 ft | 474 kts | 70° |
| 2026-05-08 17:51 | 54.05273 | -35.55914 | 36480 ft | 474 kts | 70° |
| 2026-05-08 17:51 | 54.06423 | -35.44872 | 36483 ft | 474 kts | 70° |
| 2026-05-08 17:52 | 54.07565 | -35.33805 | 36496 ft | 475 kts | 70° |
| 2026-05-08 17:53 | 54.09258 | -35.17181 | 36483 ft | 475 kts | 70° |
| 2026-05-08 17:53 | 54.10375 | -35.06077 | 36491 ft | 475 kts | 70° |
| 2026-05-08 17:54 | 54.11480 | -34.94977 | 36489 ft | 475 kts | 70° |
| 2026-05-08 17:54 | 54.12576 | -34.83873 | 36547 ft | 474 kts | 70° |
| 2026-05-08 17:55 | 54.13659 | -34.72783 | 36491 ft | 472 kts | 70° |
| 2026-05-08 17:55 | 54.14723 | -34.61760 | 36491 ft | 469 kts | 70° |
| 2026-05-08 17:56 | 54.15772 | -34.50803 | 36492 ft | 467 kts | 70° |
| 2026-05-08 17:56 | 54.16810 | -34.39869 | 36495 ft | 466 kts | 70° |
| 2026-05-08 17:57 | 54.17832 | -34.29006 | 36497 ft | 467 kts | 70° |
| 2026-05-08 17:57 | 54.18852 | -34.18055 | 36501 ft | 468 kts | 70° |
| 2026-05-08 17:58 | 54.19864 | -34.07064 | 36506 ft | 469 kts | 71° |
| 2026-05-08 17:58 | 54.20867 | -33.96041 | 36510 ft | 470 kts | 71° |
| 2026-05-08 17:59 | 54.21862 | -33.84989 | 36505 ft | 471 kts | 71° |
| 2026-05-08 17:59 | 54.22850 | -33.73902 | 36518 ft | 472 kts | 71° |
| 2026-05-08 18:00 | 54.23826 | -33.62815 | 36510 ft | 472 kts | 71° |
| 2026-05-08 18:00 | 54.25267 | -33.46216 | 36519 ft | 469 kts | 71° |
| 2026-05-08 18:01 | 54.26207 | -33.35228 | 36503 ft | 465 kts | 71° |
| 2026-05-08 18:01 | 54.27133 | -33.24298 | 36503 ft | 463 kts | 71° |
| 2026-05-08 18:02 | 54.27893 | -33.15259 | 36540 ft | 461 kts | 71° |
| 2026-05-08 18:02 | 54.28950 | -33.02555 | 36514 ft | 462 kts | 71° |
| 2026-05-08 18:03 | 54.29846 | -32.91657 | 36510 ft | 462 kts | 71° |
| 2026-05-08 18:03 | 54.30733 | -32.80723 | 36511 ft | 464 kts | 71° |
| 2026-05-08 18:04 | 54.31605 | -32.69842 | 36511 ft | 465 kts | 71° |
| 2026-05-08 18:04 | 54.32476 | -32.58852 | 36510 ft | 466 kts | 71° |
| 2026-05-08 18:05 | 54.33339 | -32.47823 | 36518 ft | 468 kts | 72° |
| 2026-05-08 18:05 | 54.34195 | -32.36746 | 36513 ft | 469 kts | 72° |
| 2026-05-08 18:06 | 54.35041 | -32.25652 | 36509 ft | 470 kts | 72° |
| 2026-05-08 18:06 | 54.35879 | -32.14537 | 36511 ft | 470 kts | 72° |
| 2026-05-08 18:07 | 54.36705 | -32.03426 | 36509 ft | 470 kts | 72° |
| 2026-05-08 18:07 | 54.37524 | -31.92294 | 36509 ft | 471 kts | 73° |
| 2026-05-08 18:08 | 54.38335 | -31.81128 | 36504 ft | 472 kts | 73° |
| 2026-05-08 18:08 | 54.39136 | -31.69948 | 36514 ft | 473 kts | 73° |
| 2026-05-08 18:09 | 54.39927 | -31.58742 | 36515 ft | 473 kts | 73° |
| 2026-05-08 18:09 | 54.40709 | -31.47523 | 36516 ft | 473 kts | 73° |
| 2026-05-08 18:10 | 54.41481 | -31.36292 | 36518 ft | 474 kts | 74° |
| 2026-05-08 18:10 | 54.42243 | -31.25049 | 36513 ft | 474 kts | 74° |
| 2026-05-08 18:11 | 54.42995 | -31.13783 | 36509 ft | 475 kts | 74° |
| 2026-05-08 18:11 | 54.43737 | -31.02523 | 36510 ft | 474 kts | 74° |
| 2026-05-08 18:12 | 54.44468 | -30.91257 | 36515 ft | 474 kts | 74° |
| 2026-05-08 18:12 | 54.45191 | -30.79978 | 36521 ft | 475 kts | 75° |
| 2026-05-08 18:13 | 54.45897 | -30.68771 | 36521 ft | 475 kts | 75° |
| 2026-05-08 18:13 | 54.46597 | -30.57479 | 36516 ft | 474 kts | 75° |
| 2026-05-08 18:14 | 54.47286 | -30.46206 | 36520 ft | 474 kts | 75° |
| 2026-05-08 18:14 | 54.47965 | -30.34932 | 36517 ft | 474 kts | 76° |
| 2026-05-08 18:15 | 54.48633 | -30.23662 | 36527 ft | 474 kts | 76° |
| 2026-05-08 18:15 | 54.49292 | -30.12360 | 36521 ft | 474 kts | 76° |
| 2026-05-08 18:16 | 54.49941 | -30.01057 | 36522 ft | 474 kts | 76° |
| 2026-05-08 18:16 | 54.50481 | -29.89721 | 36510 ft | 476 kts | 78° |
| 2026-05-08 18:17 | 54.50909 | -29.78336 | 36512 ft | 477 kts | 78° |
| 2026-05-08 18:17 | 54.51327 | -29.66945 | 36523 ft | 477 kts | 78° |
| 2026-05-08 18:18 | 54.51753 | -29.55543 | 36542 ft | 477 kts | 78° |
| 2026-05-08 18:18 | 54.52175 | -29.44158 | 36516 ft | 476 kts | 78° |
| 2026-05-08 18:19 | 54.52588 | -29.32787 | 36507 ft | 475 kts | 78° |
| 2026-05-08 18:19 | 54.52989 | -29.21443 | 36509 ft | 474 kts | 78° |
| 2026-05-08 18:20 | 54.53378 | -29.10116 | 36545 ft | 473 kts | 78° |
| 2026-05-08 18:20 | 54.53756 | -28.98808 | 36512 ft | 473 kts | 79° |
| 2026-05-08 18:21 | 54.54123 | -28.87504 | 36504 ft | 472 kts | 79° |
| 2026-05-08 18:21 | 54.54479 | -28.76220 | 36504 ft | 472 kts | 79° |
| 2026-05-08 18:22 | 54.54823 | -28.65004 | 36504 ft | 472 kts | 79° |
| 2026-05-08 18:22 | 54.55158 | -28.53718 | 36505 ft | 472 kts | 79° |
| 2026-05-08 18:23 | 54.55483 | -28.42411 | 36505 ft | 472 kts | 79° |
| 2026-05-08 18:23 | 54.55798 | -28.31085 | 36502 ft | 473 kts | 79° |
| 2026-05-08 18:24 | 54.56102 | -28.19765 | 36503 ft | 473 kts | 79° |
| 2026-05-08 18:24 | 54.56395 | -28.08440 | 36498 ft | 473 kts | 79° |
| 2026-05-08 18:25 | 54.56677 | -27.97125 | 36501 ft | 472 kts | 79° |
| 2026-05-08 18:25 | 54.56949 | -27.85828 | 36509 ft | 472 kts | 79° |
| 2026-05-08 18:26 | 54.57209 | -27.74543 | 36497 ft | 471 kts | 79° |
| 2026-05-08 18:26 | 54.57459 | -27.63279 | 36497 ft | 470 kts | 79° |
| 2026-05-08 18:27 | 54.57618 | -27.55843 | 36493 ft | 469 kts | 79° |
| 2026-05-08 18:27 | 54.57927 | -27.40811 | 36493 ft | 469 kts | 79° |
| 2026-05-08 18:28 | 54.58145 | -27.29573 | 36504 ft | 469 kts | 79° |
| 2026-05-08 18:28 | 54.58353 | -27.18334 | 36491 ft | 469 kts | 80° |
| 2026-05-08 18:29 | 54.58518 | -27.08986 | 36492 ft | 469 kts | 80° |
| 2026-05-08 18:29 | 54.58706 | -26.97744 | 36504 ft | 469 kts | 80° |
| 2026-05-08 18:30 | 54.58884 | -26.86493 | 36492 ft | 469 kts | 80° |
| 2026-05-08 18:30 | 54.59051 | -26.75261 | 36487 ft | 468 kts | 80° |
| 2026-05-08 18:31 | 54.59208 | -26.64048 | 36498 ft | 468 kts | 80° |
| 2026-05-08 18:31 | 54.59354 | -26.52840 | 36489 ft | 467 kts | 80° |
| 2026-05-08 18:32 | 54.59489 | -26.41654 | 36485 ft | 466 kts | 80° |
| 2026-05-08 18:32 | 54.59615 | -26.30496 | 36485 ft | 466 kts | 80° |
| 2026-05-08 18:33 | 54.59729 | -26.19397 | 36480 ft | 466 kts | 81° |
| 2026-05-08 18:33 | 54.59835 | -26.08219 | 36476 ft | 466 kts | 81° |
| 2026-05-08 18:34 | 54.59929 | -25.97035 | 36477 ft | 466 kts | 81° |
| 2026-05-08 18:34 | 54.60013 | -25.85855 | 36474 ft | 466 kts | 81° |
| 2026-05-08 18:35 | 54.60087 | -25.74668 | 36497 ft | 466 kts | 81° |
| 2026-05-08 18:35 | 54.60151 | -25.63480 | 36475 ft | 466 kts | 81° |
| 2026-05-08 18:36 | 54.60205 | -25.52306 | 36488 ft | 466 kts | 81° |
| 2026-05-08 18:36 | 54.60248 | -25.41115 | 36476 ft | 466 kts | 81° |
| 2026-05-08 18:37 | 54.60279 | -25.29943 | 36466 ft | 466 kts | 82° |
| 2026-05-08 18:37 | 54.60302 | -25.18777 | 36464 ft | 465 kts | 82° |
| 2026-05-08 18:38 | 54.60314 | -25.07627 | 36464 ft | 465 kts | 82° |
| 2026-05-08 18:38 | 54.60316 | -24.96468 | 36496 ft | 465 kts | 82° |
| 2026-05-08 18:39 | 54.60309 | -24.85287 | 36466 ft | 466 kts | 82° |
| 2026-05-08 18:39 | 54.60290 | -24.74091 | 36456 ft | 467 kts | 82° |
| 2026-05-08 18:40 | 54.60261 | -24.62947 | 36456 ft | 468 kts | 82° |
| 2026-05-08 18:40 | 54.60221 | -24.51730 | 36453 ft | 468 kts | 82° |
| 2026-05-08 18:41 | 54.60172 | -24.40488 | 36461 ft | 469 kts | 83° |
| 2026-05-08 18:41 | 54.60112 | -24.29230 | 36459 ft | 471 kts | 84° |
| 2026-05-08 18:42 | 54.60040 | -24.17926 | 36453 ft | 472 kts | 84° |
| 2026-05-08 18:42 | 54.59958 | -24.06610 | 36447 ft | 472 kts | 84° |
| 2026-05-08 18:43 | 54.59865 | -23.95279 | 36449 ft | 473 kts | 84° |
| 2026-05-08 18:43 | 54.59762 | -23.83940 | 36446 ft | 473 kts | 84° |
| 2026-05-08 18:44 | 54.59649 | -23.72597 | 36445 ft | 473 kts | 84° |
| 2026-05-08 18:44 | 54.59524 | -23.61247 | 36444 ft | 474 kts | 85° |
| 2026-05-08 18:45 | 54.59389 | -23.49957 | 36435 ft | 474 kts | 85° |
| 2026-05-08 18:45 | 54.59243 | -23.38591 | 36433 ft | 474 kts | 85° |
| 2026-05-08 18:46 | 54.59087 | -23.27232 | 36442 ft | 474 kts | 85° |
| 2026-05-08 18:46 | 54.58920 | -23.15868 | 36457 ft | 474 kts | 85° |
| 2026-05-08 18:47 | 54.58741 | -23.04491 | 36436 ft | 474 kts | 85° |
| 2026-05-08 18:47 | 54.58552 | -22.93130 | 36428 ft | 474 kts | 85° |
| 2026-05-08 18:48 | 54.58353 | -22.81781 | 36428 ft | 473 kts | 86° |
| 2026-05-08 18:48 | 54.58144 | -22.70447 | 36422 ft | 473 kts | 86° |
| 2026-05-08 18:49 | 54.57925 | -22.59132 | 36419 ft | 472 kts | 86° |
| 2026-05-08 18:49 | 54.57695 | -22.47814 | 36419 ft | 473 kts | 86° |
| 2026-05-08 18:50 | 54.57454 | -22.36491 | 36421 ft | 473 kts | 86° |
| 2026-05-08 18:50 | 54.57203 | -22.25164 | 36422 ft | 473 kts | 86° |
| 2026-05-08 18:51 | 54.56941 | -22.13837 | 36413 ft | 473 kts | 86° |
| 2026-05-08 18:51 | 54.56668 | -22.02497 | 36425 ft | 474 kts | 86° |
| 2026-05-08 18:52 | 54.56384 | -21.91149 | 36426 ft | 474 kts | 86° |
| 2026-05-08 18:52 | 54.56089 | -21.79799 | 36420 ft | 474 kts | 87° |
| 2026-05-08 18:53 | 54.55784 | -21.68473 | 36406 ft | 473 kts | 87° |
| 2026-05-08 18:53 | 54.55469 | -21.57160 | 36413 ft | 472 kts | 87° |
| 2026-05-08 18:54 | 54.55144 | -21.45863 | 36402 ft | 472 kts | 87° |
| 2026-05-08 18:54 | 54.54809 | -21.34562 | 36408 ft | 472 kts | 88° |
| 2026-05-08 18:55 | 54.54285 | -21.17609 | 36401 ft | 473 kts | 88° |
| 2026-05-08 18:56 | 54.53925 | -21.06374 | 36396 ft | 473 kts | 88° |
| 2026-05-08 18:56 | 54.53549 | -20.94970 | 36398 ft | 474 kts | 88° |
| 2026-05-08 18:57 | 54.53167 | -20.83706 | 36400 ft | 474 kts | 88° |
| 2026-05-08 18:57 | 54.52773 | -20.72351 | 36405 ft | 476 kts | 89° |
| 2026-05-08 18:58 | 54.52365 | -20.60969 | 36399 ft | 477 kts | 89° |
| 2026-05-08 18:58 | 54.51945 | -20.49563 | 36397 ft | 478 kts | 89° |
| 2026-05-08 18:59 | 54.51514 | -20.38126 | 36394 ft | 479 kts | 89° |
| 2026-05-08 18:59 | 54.51072 | -20.26680 | 36389 ft | 480 kts | 90° |
| 2026-05-08 19:00 | 54.50696 | -20.17139 | 36391 ft | 481 kts | 90° |
| 2026-05-08 19:00 | 54.50130 | -20.03713 | 36392 ft | 483 kts | 92° |
| 2026-05-08 19:01 | 54.48770 | -19.92356 | 36390 ft | 489 kts | 103° |
| 2026-05-08 19:01 | 54.46750 | -19.81181 | 36388 ft | 490 kts | 104° |
| 2026-05-08 19:02 | 54.44712 | -19.69994 | 36380 ft | 490 kts | 103° |
| 2026-05-08 19:02 | 54.42696 | -19.58798 | 36392 ft | 490 kts | 104° |
| 2026-05-08 19:03 | 54.40699 | -19.47665 | 36376 ft | 491 kts | 104° |
| 2026-05-08 19:03 | 54.38679 | -19.36459 | 36375 ft | 492 kts | 104° |
| 2026-05-08 19:04 | 54.36647 | -19.25263 | 36375 ft | 492 kts | 104° |
| 2026-05-08 19:04 | 54.34601 | -19.14065 | 36366 ft | 492 kts | 104° |
| 2026-05-08 19:05 | 54.32545 | -19.02881 | 36364 ft | 492 kts | 104° |
| 2026-05-08 19:05 | 54.30478 | -18.91706 | 36373 ft | 492 kts | 105° |
| 2026-05-08 19:06 | 54.28397 | -18.80521 | 36358 ft | 494 kts | 105° |
| 2026-05-08 19:06 | 54.26302 | -18.69324 | 36360 ft | 495 kts | 106° |
| 2026-05-08 19:07 | 54.24190 | -18.58106 | 36359 ft | 496 kts | 106° |
| 2026-05-08 19:07 | 54.22064 | -18.46884 | 36352 ft | 497 kts | 105° |
| 2026-05-08 19:08 | 54.19926 | -18.35666 | 36350 ft | 497 kts | 105° |
| 2026-05-08 19:08 | 54.17776 | -18.24446 | 36348 ft | 498 kts | 107° |
| 2026-05-08 19:09 | 54.15612 | -18.13223 | 36341 ft | 499 kts | 106° |
| 2026-05-08 19:09 | 54.13441 | -18.02017 | 36347 ft | 501 kts | 107° |
| 2026-05-08 19:10 | 54.11233 | -17.90706 | 36324 ft | 505 kts | 107° |
| 2026-05-08 19:10 | 54.09005 | -17.79357 | 36333 ft | 504 kts | 107° |
| 2026-05-08 19:11 | 54.06773 | -17.68042 | 36336 ft | 503 kts | 107° |
| 2026-05-08 19:11 | 54.04535 | -17.56759 | 36324 ft | 503 kts | 108° |
| 2026-05-08 19:12 | 54.02273 | -17.45439 | 36327 ft | 506 kts | 109° |
| 2026-05-08 19:12 | 54.00003 | -17.34133 | 36316 ft | 504 kts | 109° |
| 2026-05-08 19:13 | 53.97729 | -17.22873 | 36322 ft | 503 kts | 109° |
| 2026-05-08 19:13 | 53.95460 | -17.11710 | 36318 ft | 504 kts | 110° |
| 2026-05-08 19:14 | 53.93163 | -17.00460 | 36318 ft | 505 kts | 110° |
| 2026-05-08 19:14 | 53.90850 | -16.89199 | 36304 ft | 506 kts | 110° |
| 2026-05-08 19:15 | 53.88524 | -16.77947 | 36312 ft | 505 kts | 110° |
| 2026-05-08 19:15 | 53.86190 | -16.66712 | 36297 ft | 505 kts | 110° |
| 2026-05-08 19:16 | 53.84244 | -16.57391 | 36297 ft | 504 kts | 111° |
| 2026-05-08 19:16 | 53.81900 | -16.46222 | 36294 ft | 503 kts | 111° |
| 2026-05-08 19:17 | 53.79550 | -16.35088 | 36294 ft | 502 kts | 111° |
| 2026-05-08 19:17 | 53.77193 | -16.23985 | 36294 ft | 502 kts | 111° |
| 2026-05-08 19:18 | 53.74825 | -16.12888 | 36288 ft | 502 kts | 111° |
| 2026-05-08 19:18 | 53.72448 | -16.01808 | 36290 ft | 502 kts | 111° |
| 2026-05-08 19:19 | 53.70058 | -15.90728 | 36288 ft | 502 kts | 111° |
| 2026-05-08 19:19 | 53.67657 | -15.79656 | 36281 ft | 502 kts | 112° |
| 2026-05-08 19:20 | 53.65247 | -15.68605 | 36284 ft | 502 kts | 112° |
| 2026-05-08 19:20 | 53.62826 | -15.57559 | 36277 ft | 502 kts | 113° |
| 2026-05-08 19:21 | 53.60411 | -15.46605 | 36276 ft | 502 kts | 113° |
| 2026-05-08 19:21 | 53.57974 | -15.35601 | 36278 ft | 502 kts | 113° |
| 2026-05-08 19:22 | 53.55522 | -15.24593 | 36269 ft | 502 kts | 113° |
| 2026-05-08 19:22 | 53.53067 | -15.13615 | 36248 ft | 501 kts | 114° |
| 2026-05-08 19:23 | 53.50872 | -15.02494 | 36258 ft | 504 kts | 105° |
| 2026-05-08 19:23 | 53.49927 | -14.90808 | 36261 ft | 508 kts | 94° |
| 2026-05-08 19:24 | 53.49966 | -14.78946 | 36266 ft | 508 kts | 91° |
| 2026-05-08 19:24 | 53.50063 | -14.67084 | 36257 ft | 508 kts | 92° |
| 2026-05-08 19:25 | 53.50100 | -14.55223 | 36249 ft | 508 kts | 93° |
| 2026-05-08 19:25 | 53.50098 | -14.43340 | 36263 ft | 509 kts | 93° |
| 2026-05-08 19:26 | 53.50084 | -14.31433 | 36262 ft | 510 kts | 93° |
| 2026-05-08 19:26 | 53.50062 | -14.19500 | 36248 ft | 511 kts | 93° |
| 2026-05-08 19:27 | 53.50031 | -14.07637 | 36234 ft | 512 kts | 93° |
| 2026-05-08 19:27 | 53.49458 | -13.95792 | 36246 ft | 507 kts | 104° |
| 2026-05-08 19:28 | 53.47829 | -13.84315 | 36256 ft | 505 kts | 108° |
| 2026-05-08 19:28 | 53.46109 | -13.72884 | 36248 ft | 505 kts | 108° |
| 2026-05-08 19:29 | 53.44411 | -13.61446 | 36233 ft | 505 kts | 108° |
| 2026-05-08 19:29 | 53.42731 | -13.50030 | 36231 ft | 504 kts | 108° |
| 2026-05-08 19:29 | 53.41888 | -13.44316 | 36336 ft | 504 kts | 108° |
| 2026-05-08 19:30 | 53.41045 | -13.38619 | 36499 ft | 503 kts | 108° |
| 2026-05-08 19:30 | 53.40201 | -13.32932 | 36658 ft | 502 kts | 108° |
| 2026-05-08 19:30 | 53.39356 | -13.27270 | 36807 ft | 501 kts | 108° |
| 2026-05-08 19:30 | 53.38508 | -13.21606 | 36935 ft | 501 kts | 108° |
| 2026-05-08 19:31 | 53.37657 | -13.15948 | 37062 ft | 501 kts | 108° |
| 2026-05-08 19:31 | 53.35943 | -13.04615 | 37197 ft | 502 kts | 108° |
| 2026-05-08 19:32 | 53.34230 | -12.93368 | 37206 ft | 501 kts | 108° |
| 2026-05-08 19:32 | 53.32501 | -12.82086 | 37215 ft | 500 kts | 108° |
| 2026-05-08 19:33 | 53.30763 | -12.70826 | 37206 ft | 499 kts | 108° |
| 2026-05-08 19:33 | 53.29019 | -12.59608 | 37212 ft | 498 kts | 109° |
| 2026-05-08 19:34 | 53.27257 | -12.48354 | 37210 ft | 497 kts | 109° |
| 2026-05-08 19:34 | 53.25511 | -12.37272 | 37198 ft | 496 kts | 109° |
| 2026-05-08 19:35 | 53.23742 | -12.26122 | 37211 ft | 496 kts | 109° |
| 2026-05-08 19:35 | 53.21961 | -12.14977 | 37201 ft | 497 kts | 109° |
| 2026-05-08 19:36 | 53.20169 | -12.03830 | 37202 ft | 498 kts | 109° |
| 2026-05-08 19:36 | 53.18362 | -11.92666 | 37197 ft | 499 kts | 109° |
| 2026-05-08 19:37 | 53.16544 | -11.81504 | 37197 ft | 499 kts | 109° |
| 2026-05-08 19:37 | 53.14714 | -11.70345 | 37179 ft | 499 kts | 109° |
| 2026-05-08 19:38 | 53.12877 | -11.59211 | 37187 ft | 498 kts | 110° |
| 2026-05-08 19:38 | 53.11042 | -11.48167 | 37190 ft | 498 kts | 110° |
| 2026-05-08 19:39 | 53.09188 | -11.37079 | 37183 ft | 497 kts | 110° |
| 2026-05-08 19:39 | 53.07325 | -11.26008 | 37184 ft | 497 kts | 110° |
| 2026-05-08 19:40 | 53.05453 | -11.14956 | 37176 ft | 496 kts | 110° |
| 2026-05-08 19:40 | 53.03570 | -11.03908 | 37182 ft | 497 kts | 110° |
| 2026-05-08 19:41 | 53.01676 | -10.92865 | 37174 ft | 497 kts | 110° |
| 2026-05-08 19:41 | 52.99768 | -10.81812 | 37171 ft | 498 kts | 110° |
| 2026-05-08 19:42 | 52.97850 | -10.70763 | 37162 ft | 498 kts | 110° |
| 2026-05-08 19:42 | 52.95920 | -10.59721 | 37177 ft | 498 kts | 110° |
| 2026-05-08 19:43 | 52.93980 | -10.48687 | 37159 ft | 498 kts | 110° |
| 2026-05-08 19:43 | 52.92044 | -10.37741 | 37161 ft | 498 kts | 111° |
| 2026-05-08 19:44 | 52.90084 | -10.26731 | 37152 ft | 498 kts | 111° |
| 2026-05-08 19:44 | 52.88116 | -10.15736 | 37150 ft | 498 kts | 111° |
| 2026-05-08 19:45 | 52.86137 | -10.04753 | 37161 ft | 498 kts | 111° |
| 2026-05-08 19:45 | 52.84147 | -9.93776 | 37149 ft | 499 kts | 111° |
| 2026-05-08 19:46 | 52.82143 | -9.82786 | 37134 ft | 498 kts | 111° |
| 2026-05-08 19:46 | 52.79123 | -9.66347 | 37140 ft | 498 kts | 111° |
| 2026-05-08 19:47 | 52.77096 | -9.55392 | 37131 ft | 498 kts | 111° |
| 2026-05-08 19:47 | 52.75062 | -9.44464 | 37127 ft | 498 kts | 111° |
| 2026-05-08 19:48 | 52.73020 | -9.33561 | 37128 ft | 498 kts | 111° |
| 2026-05-08 19:48 | 52.70967 | -9.22659 | 37134 ft | 497 kts | 111° |
| 2026-05-08 19:49 | 52.68904 | -9.11771 | 37129 ft | 497 kts | 111° |
| 2026-05-08 19:49 | 52.66829 | -9.00884 | 37121 ft | 497 kts | 112° |
| 2026-05-08 19:50 | 52.64752 | -8.90042 | 37126 ft | 495 kts | 112° |
| 2026-05-08 19:50 | 52.62672 | -8.79244 | 37124 ft | 494 kts | 112° |
| 2026-05-08 19:51 | 52.60599 | -8.68550 | 37122 ft | 493 kts | 112° |
| 2026-05-08 19:51 | 52.58505 | -8.57808 | 37119 ft | 492 kts | 112° |
| 2026-05-08 19:52 | 52.56406 | -8.47100 | 37100 ft | 492 kts | 112° |
| 2026-05-08 19:52 | 52.54293 | -8.36382 | 37119 ft | 493 kts | 112° |
| 2026-05-08 19:53 | 52.52170 | -8.25670 | 37115 ft | 494 kts | 112° |
| 2026-05-08 19:53 | 52.50033 | -8.14947 | 37113 ft | 495 kts | 112° |
| 2026-05-08 19:54 | 52.47880 | -8.04203 | 37103 ft | 495 kts | 112° |
| 2026-05-08 19:54 | 52.45720 | -7.93479 | 37099 ft | 495 kts | 112° |
| 2026-05-08 19:55 | 52.43550 | -7.82765 | 37111 ft | 495 kts | 112° |
| 2026-05-08 19:55 | 52.41370 | -7.72058 | 37110 ft | 495 kts | 112° |
| 2026-05-08 19:56 | 52.39182 | -7.61375 | 37108 ft | 495 kts | 112° |
| 2026-05-08 19:56 | 52.36984 | -7.50702 | 37109 ft | 495 kts | 112° |
| 2026-05-08 19:57 | 52.34778 | -7.40044 | 37097 ft | 495 kts | 112° |
| 2026-05-08 19:57 | 52.32562 | -7.29398 | 37104 ft | 495 kts | 112° |
| 2026-05-08 19:58 | 52.30337 | -7.18757 | 37088 ft | 495 kts | 113° |
| 2026-05-08 19:58 | 52.28119 | -7.08209 | 37103 ft | 493 kts | 113° |
| 2026-05-08 19:59 | 52.25885 | -6.97644 | 37100 ft | 492 kts | 113° |
| 2026-05-08 19:59 | 52.23646 | -6.87105 | 37094 ft | 491 kts | 113° |
| 2026-05-08 20:00 | 52.21400 | -6.76596 | 37110 ft | 491 kts | 113° |
| 2026-05-08 20:00 | 52.19143 | -6.66086 | 37106 ft | 491 kts | 113° |
| 2026-05-08 20:01 | 52.16876 | -6.55584 | 37110 ft | 492 kts | 113° |
| 2026-05-08 20:01 | 52.14595 | -6.45068 | 37108 ft | 492 kts | 113° |
| 2026-05-08 20:02 | 52.12306 | -6.34568 | 37097 ft | 493 kts | 113° |
| 2026-05-08 20:02 | 52.10003 | -6.24059 | 37105 ft | 493 kts | 113° |
| 2026-05-08 20:03 | 52.08084 | -6.15333 | 37101 ft | 493 kts | 113° |
| 2026-05-08 20:03 | 52.05762 | -6.04855 | 37100 ft | 493 kts | 114° |
| 2026-05-08 20:04 | 52.02566 | -5.93075 | 37104 ft | 489 kts | 119° |
| 2026-05-08 20:04 | 52.00162 | -5.84689 | 37083 ft | 489 kts | 119° |
| 2026-05-08 20:05 | 51.97301 | -5.74668 | 37094 ft | 489 kts | 118° |
| 2026-05-08 20:05 | 51.94449 | -5.64640 | 37091 ft | 490 kts | 118° |
| 2026-05-08 20:06 | 51.91593 | -5.54623 | 37090 ft | 490 kts | 118° |
| 2026-05-08 20:06 | 51.88729 | -5.44621 | 37093 ft | 489 kts | 118° |
| 2026-05-08 20:07 | 51.85879 | -5.34712 | 37092 ft | 488 kts | 118° |
| 2026-05-08 20:07 | 51.83004 | -5.24759 | 37085 ft | 488 kts | 119° |
| 2026-05-08 20:08 | 51.80127 | -5.14837 | 37086 ft | 487 kts | 119° |
| 2026-05-08 20:08 | 51.77247 | -5.04932 | 37086 ft | 487 kts | 118° |
| 2026-05-08 20:09 | 51.74556 | -4.94876 | 37088 ft | 488 kts | 116° |
| 2026-05-08 20:09 | 51.71951 | -4.84767 | 37076 ft | 488 kts | 116° |
| 2026-05-08 20:10 | 51.69309 | -4.74684 | 37076 ft | 488 kts | 116° |
| 2026-05-08 20:10 | 51.66637 | -4.64639 | 37085 ft | 487 kts | 117° |
| 2026-05-08 20:11 | 51.63954 | -4.54610 | 37082 ft | 488 kts | 117° |
| 2026-05-08 20:11 | 51.61266 | -4.44597 | 37081 ft | 488 kts | 117° |
| 2026-05-08 20:12 | 51.58584 | -4.34643 | 37085 ft | 488 kts | 117° |
| 2026-05-08 20:12 | 51.55879 | -4.24643 | 37088 ft | 488 kts | 116° |
| 2026-05-08 20:13 | 51.53756 | -4.14221 | 37082 ft | 494 kts | 105° |
| 2026-05-08 20:13 | 51.52584 | -4.03318 | 37091 ft | 496 kts | 102° |
| 2026-05-08 20:14 | 51.51417 | -3.92398 | 37084 ft | 496 kts | 103° |
| 2026-05-08 20:14 | 51.50169 | -3.81504 | 37071 ft | 496 kts | 103° |
| 2026-05-08 20:15 | 51.48885 | -3.70638 | 37084 ft | 495 kts | 103° |
| 2026-05-08 20:15 | 51.47693 | -3.59760 | 37085 ft | 497 kts | 99° |
| 2026-05-08 20:16 | 51.47048 | -3.48718 | 37091 ft | 497 kts | 97° |
| 2026-05-08 20:16 | 51.46446 | -3.37664 | 37075 ft | 497 kts | 98° |
| 2026-05-08 20:17 | 51.45802 | -3.26576 | 36309 ft | 505 kts | 97° |
| 2026-05-08 20:17 | 51.45472 | -3.21075 | 35616 ft | 488 kts | 98° |
| 2026-05-08 20:17 | 51.45143 | -3.15660 | 34825 ft | 489 kts | 98° |
| 2026-05-08 20:18 | 51.44805 | -3.10203 | 33993 ft | 492 kts | 98° |
| 2026-05-08 20:18 | 51.44463 | -3.04722 | 33019 ft | 495 kts | 98° |
| 2026-05-08 20:18 | 51.44118 | -2.99217 | 32075 ft | 498 kts | 98° |
| 2026-05-08 20:18 | 51.43770 | -2.93688 | 31123 ft | 500 kts | 98° |
| 2026-05-08 20:19 | 51.43418 | -2.88143 | 30328 ft | 498 kts | 98° |
| 2026-05-08 20:19 | 51.43069 | -2.82651 | 29623 ft | 493 kts | 98° |
| 2026-05-08 20:19 | 51.42722 | -2.77219 | 28954 ft | 488 kts | 98° |
| 2026-05-08 20:19 | 51.42375 | -2.71847 | 28328 ft | 482 kts | 98° |
| 2026-05-08 20:20 | 51.42029 | -2.66535 | 27709 ft | 477 kts | 98° |
| 2026-05-08 20:20 | 51.41684 | -2.61280 | 27084 ft | 472 kts | 98° |
| 2026-05-08 20:20 | 51.41340 | -2.56075 | 26467 ft | 468 kts | 98° |
| 2026-05-08 20:20 | 51.41002 | -2.50986 | 25872 ft | 464 kts | 98° |
| 2026-05-08 20:21 | 51.40655 | -2.45802 | 25256 ft | 460 kts | 98° |
| 2026-05-08 20:21 | 51.40316 | -2.40794 | 24667 ft | 457 kts | 98° |
| 2026-05-08 20:21 | 51.39972 | -2.35750 | 24067 ft | 454 kts | 98° |
| 2026-05-08 20:21 | 51.39624 | -2.30677 | 23420 ft | 451 kts | 98° |
| 2026-05-08 20:22 | 51.39286 | -2.25769 | 22752 ft | 448 kts | 98° |
| 2026-05-08 20:22 | 51.38943 | -2.20829 | 22136 ft | 444 kts | 98° |
| 2026-05-08 20:22 | 51.38603 | -2.15939 | 21536 ft | 440 kts | 98° |
| 2026-05-08 20:22 | 51.38263 | -2.11090 | 20940 ft | 437 kts | 98° |
| 2026-05-08 20:23 | 51.37925 | -2.06272 | 20364 ft | 434 kts | 98° |
| 2026-05-08 20:23 | 51.37585 | -2.01490 | 19783 ft | 431 kts | 98° |
| 2026-05-08 20:23 | 51.37245 | -1.96731 | 19211 ft | 429 kts | 98° |
| 2026-05-08 20:23 | 51.36904 | -1.92003 | 18629 ft | 427 kts | 98° |
| 2026-05-08 20:24 | 51.36563 | -1.87292 | 17992 ft | 425 kts | 98° |
| 2026-05-08 20:24 | 51.36223 | -1.82612 | 17361 ft | 422 kts | 98° |
| 2026-05-08 20:24 | 51.35884 | -1.77970 | 16758 ft | 418 kts | 98° |
| 2026-05-08 20:24 | 51.35546 | -1.73370 | 16164 ft | 415 kts | 98° |
| 2026-05-08 20:25 | 51.35209 | -1.68800 | 15606 ft | 411 kts | 98° |
| 2026-05-08 20:25 | 51.34874 | -1.64278 | 15036 ft | 404 kts | 98° |
| 2026-05-08 20:25 | 51.34553 | -1.59942 | 14465 ft | 382 kts | 98° |
| 2026-05-08 20:25 | 51.34237 | -1.55735 | 14001 ft | 379 kts | 98° |
| 2026-05-08 20:26 | 51.33924 | -1.51567 | 13670 ft | 377 kts | 98° |
| 2026-05-08 20:26 | 51.33615 | -1.47437 | 13318 ft | 380 kts | 98° |
| 2026-05-08 20:26 | 51.33299 | -1.43233 | 12963 ft | 381 kts | 98° |
| 2026-05-08 20:26 | 51.32983 | -1.39038 | 12626 ft | 379 kts | 98° |
| 2026-05-08 20:27 | 51.32668 | -1.34876 | 12294 ft | 376 kts | 98° |
| 2026-05-08 20:27 | 51.32355 | -1.30751 | 11958 ft | 370 kts | 98° |
| 2026-05-08 20:27 | 51.32050 | -1.26738 | 11624 ft | 353 kts | 98° |
| 2026-05-08 20:27 | 51.31763 | -1.22979 | 11324 ft | 329 kts | 98° |
| 2026-05-08 20:28 | 51.31492 | -1.19468 | 11038 ft | 308 kts | 98° |
| 2026-05-08 20:28 | 51.31260 | -1.16172 | 10778 ft | 289 kts | 95° |
| 2026-05-08 20:28 | 51.31193 | -1.13031 | 10538 ft | 279 kts | 92° |
| 2026-05-08 20:28 | 51.31183 | -1.09914 | 10330 ft | 284 kts | 91° |
| 2026-05-08 20:29 | 51.31177 | -1.06736 | 10083 ft | 287 kts | 91° |
| 2026-05-08 20:29 | 51.31164 | -1.03551 | 9801 ft | 285 kts | 92° |
| 2026-05-08 20:29 | 51.31146 | -1.00407 | 9536 ft | 281 kts | 92° |
| 2026-05-08 20:29 | 51.31123 | -0.97305 | 9282 ft | 277 kts | 92° |
| 2026-05-08 20:30 | 51.31096 | -0.94258 | 9018 ft | 272 kts | 92° |
| 2026-05-08 20:30 | 51.31068 | -0.91242 | 8795 ft | 270 kts | 92° |
| 2026-05-08 20:30 | 51.31039 | -0.88254 | 8560 ft | 268 kts | 92° |
| 2026-05-08 20:30 | 51.31008 | -0.85283 | 8333 ft | 267 kts | 92° |
| 2026-05-08 20:31 | 51.30977 | -0.82322 | 8094 ft | 265 kts | 91° |
| 2026-05-08 20:31 | 51.31304 | -0.79492 | 7650 ft | 265 kts | 64° |
| 2026-05-08 20:31 | 51.32444 | -0.77210 | 7056 ft | 265 kts | 40° |
| 2026-05-08 20:31 | 51.33975 | -0.75595 | 6517 ft | 264 kts | 20° |
| 2026-05-08 20:32 | 51.35743 | -0.75038 | 6183 ft | 257 kts | 7° |
| 2026-05-08 20:32 | 51.37538 | -0.74793 | 5751 ft | 263 kts | 356° |
| 2026-05-08 20:32 | 51.39267 | -0.75789 | 5345 ft | 271 kts | 322° |
| 2026-05-08 20:32 | 51.40526 | -0.77999 | 4939 ft | 266 kts | 310° |
| 2026-05-08 20:33 | 51.42000 | -0.79632 | 4585 ft | 255 kts | 347° |
| 2026-05-08 20:33 | 51.43716 | -0.79791 | 4255 ft | 243 kts | 4° |
| 2026-05-08 20:33 | 51.45399 | -0.79682 | 3914 ft | 240 kts | 6° |
| 2026-05-08 20:33 | 51.46949 | -0.78897 | 3579 ft | 232 kts | 37° |
| 2026-05-08 20:34 | 51.47919 | -0.76983 | 3193 ft | 218 kts | 72° |
| 2026-05-08 20:34 | 51.48006 | -0.74707 | 3010 ft | 194 kts | 100° |
| 2026-05-08 20:34 | 51.47725 | -0.70772 | 2824 ft | 173 kts | 94° |
| 2026-05-08 20:35 | 51.47688 | -0.68856 | 2600 ft | 170 kts | 92° |
| 2026-05-08 20:35 | 51.47685 | -0.67003 | 2378 ft | 159 kts | 91° |
| 2026-05-08 20:35 | 51.47689 | -0.65318 | 2178 ft | 145 kts | 91° |
| 2026-05-08 20:35 | 51.47694 | -0.63717 | 1984 ft | 143 kts | 91° |
| 2026-05-08 20:36 | 51.47700 | -0.62118 | 1788 ft | 143 kts | 91° |
| 2026-05-08 20:36 | 51.47706 | -0.60541 | 1595 ft | 143 kts | 91° |
| 2026-05-08 20:36 | 51.47711 | -0.58928 | 1404 ft | 143 kts | 91° |
| 2026-05-08 20:36 | 51.47717 | -0.57357 | 1216 ft | 142 kts | 91° |
| 2026-05-08 20:37 | 51.47722 | -0.55776 | 1026 ft | 141 kts | 90° |
| 2026-05-08 20:37 | 51.47728 | -0.54195 | 835 ft | 142 kts | 90° |
| 2026-05-08 20:37 | 51.47734 | -0.52624 | 640 ft | 140 kts | 90° |
| 2026-05-08 20:37 | 51.47740 | -0.51065 | 448 ft | 139 kts | 90° |
| 2026-05-08 20:38 | 51.47746 | -0.49539 | 257 ft | 139 kts | 90° |
| 2026-05-08 20:38 | 51.47751 | -0.47982 | 107 ft | 139 kts | 90° |
| 2026-05-08 20:38 | 51.47755 | -0.46580 | 101 ft | 108 kts | 89° |
| 2026-05-08 20:38 | 51.47762 | -0.45644 | 88 ft | 59 kts | 90° |
| 2026-05-08 20:39 | 51.47753 | -0.45286 | 94 ft | 5 kts | 107° |
| 2026-05-08 20:39 | 51.47728 | -0.45224 | 96 ft | 11 kts | 135° |
| 2026-05-08 20:39 | 51.47629 | -0.45177 | 96 ft | 12 kts | 179° |
| 2026-05-08 20:39 | 51.47621 | -0.45177 | 95 ft | 0 kts | 179° |
| 2026-05-08 20:40 | 51.47601 | -0.45178 | 94 ft | 10 kts | 181° |
| 2026-05-08 20:40 | 51.47516 | -0.45252 | 93 ft | 16 kts | 244° |
| 2026-05-08 20:40 | 51.47505 | -0.45432 | 93 ft | 16 kts | 270° |
| 2026-05-08 20:41 | 51.47507 | -0.45613 | 93 ft | 16 kts | 271° |
| 2026-05-08 20:41 | 51.47513 | -0.45794 | 93 ft | 16 kts | 274° |
| 2026-05-08 20:41 | 51.47516 | -0.45975 | 90 ft | 16 kts | 270° |
| 2026-05-08 20:41 | 51.47515 | -0.46156 | 90 ft | 16 kts | 269° |
| 2026-05-08 20:42 | 51.47513 | -0.46337 | 93 ft | 16 kts | 270° |
| 2026-05-08 20:42 | 51.47514 | -0.46519 | 93 ft | 16 kts | 270° |
| 2026-05-08 20:42 | 51.47505 | -0.46698 | 94 ft | 16 kts | 248° |
| 2026-05-08 20:42 | 51.47403 | -0.46734 | 91 ft | 16 kts | 171° |
| 2026-05-08 20:43 | 51.47294 | -0.46716 | 90 ft | 11 kts | 172° |
| 2026-05-08 20:43 | 51.47245 | -0.46652 | 92 ft | 10 kts | 107° |
| 2026-05-08 20:43 | 51.47243 | -0.46544 | 90 ft | 10 kts | 89° |
| 2026-05-08 20:43 | 51.47232 | -0.46437 | 94 ft | 10 kts | 114° |
| 2026-05-08 20:44 | 51.47182 | -0.46360 | 94 ft | 10 kts | 146° |
| 2026-05-08 20:44 | 51.47125 | -0.46297 | 94 ft | 10 kts | 146° |
| 2026-05-08 20:44 | 51.47079 | -0.46280 | 93 ft | 5 kts | 204° |
| 2026-05-08 20:44 | 51.47055 | -0.46323 | 93 ft | 2 kts | 233° |
| 2026-05-08 20:45 | 51.47045 | -0.46346 | 94 ft | 3 kts | 234° |
| 2026-05-08 20:45 | 51.47039 | -0.46360 | 93 ft | 0 kts | 235° |